Aeroporto :
LOGIN :

Iscrizione | Disclaimer

   EN    FR    IT 

 










Sommario :    VFR   VFR Marginale   IFR   IFR Intensivo   IFR Molto Intensivo
Visibilità : 
Base nubi : 
>= 8 km
>= 3000ft
5 / 8 km
1000 / 3000 ft
1500m / 5 km
500 / 1000 ft
800 / 1500m
200 / 500 ft
< 800m
< 200 ft
Simboli :   Temporali  Nebbia  Neve Forte  Precipitazioni Forti  Vento > 20 kt
SIGMETs :   Varie  Temporali  Ghiacco  Turbolenza  Onda orograficha  Ceneri Vulcaniche






- Altitudine del aeroporto : 121 ft


LLHZ - Herzliya

METAR N/A
TAF TAF LLHZ
Valido dal 10 a 00 ore il 11 a 00 ore UTC


092300Z 1000/1024 20008KT 9999 SCT025
TEMPO 1000/1007 24015KT 7000 RA FEW018 FEW020TCU BKN025
BECMG 1007/1009 26015KT 9999 BKN025
PROB40 1009/1015 27018G28KT 5000 RA SCT015 FEW020CB BKN025
PROB30 1015/1024 7000 RA FEW018TCU FEW020TCU BKN025 TX17/1011Z TN14/1003Z



MetMap, La meteo Aeronautica in un colpo d'occhio ! - Copyright ORBIFLY Dicembre 2007 - Disclaimer

ORBIFLY MET'MAP TEAM :

Programmazione e sviluppo : Alexandra Zaïnal
Concezione : Baudouin d'Aumeries
Aiuto per la programmazione : Marc-Olivier Méhu
Supporto tecnico e logistico : Manuel Goepfert
Aiuto per la traduzione : Arnaldo La Scala

Contatto : metmap@orbifly.com




FONTI E CREDITI :

   NOAA